sensor_id;sensor_type;location;lat;lon;timestamp;P1;durP1;ratioP1;P2;durP2;ratioP2
21894;SDS011;11112;51.270;7.224;2023-06-10T00:00:09;6.82;;;5.82;;
21894;SDS011;11112;51.270;7.224;2023-06-10T00:02:40;8.07;;;6.10;;
21894;SDS011;11112;51.270;7.224;2023-06-10T00:05:09;8.20;;;6.00;;
21894;SDS011;11112;51.270;7.224;2023-06-10T00:07:41;9.07;;;6.53;;
21894;SDS011;11112;51.270;7.224;2023-06-10T00:10:11;9.00;;;6.25;;
21894;SDS011;11112;51.270;7.224;2023-06-10T00:12:38;10.15;;;6.82;;
21894;SDS011;11112;51.270;7.224;2023-06-10T00:15:09;9.00;;;6.15;;
21894;SDS011;11112;51.270;7.224;2023-06-10T00:17:38;9.77;;;5.90;;
21894;SDS011;11112;51.270;7.224;2023-06-10T00:20:06;8.57;;;6.30;;
21894;SDS011;11112;51.270;7.224;2023-06-10T00:22:37;7.80;;;6.00;;
21894;SDS011;11112;51.270;7.224;2023-06-10T00:25:10;7.03;;;6.07;;
21894;SDS011;11112;51.270;7.224;2023-06-10T00:27:38;8.15;;;6.10;;
21894;SDS011;11112;51.270;7.224;2023-06-10T00:30:06;7.90;;;5.95;;
21894;SDS011;11112;51.270;7.224;2023-06-10T00:32:38;7.15;;;6.15;;
21894;SDS011;11112;51.270;7.224;2023-06-10T00:35:06;7.03;;;5.85;;
21894;SDS011;11112;51.270;7.224;2023-06-10T00:37:34;8.98;;;5.63;;
21894;SDS011;11112;51.270;7.224;2023-06-10T00:40:11;10.68;;;6.13;;
21894;SDS011;11112;51.270;7.224;2023-06-10T00:42:40;7.15;;;6.15;;
21894;SDS011;11112;51.270;7.224;2023-06-10T00:45:12;7.70;;;6.05;;
21894;SDS011;11112;51.270;7.224;2023-06-10T00:47:39;7.57;;;5.80;;
21894;SDS011;11112;51.270;7.224;2023-06-10T00:50:10;8.88;;;6.20;;
21894;SDS011;11112;51.270;7.224;2023-06-10T00:52:40;8.68;;;5.70;;
21894;SDS011;11112;51.270;7.224;2023-06-10T00:55:11;7.47;;;6.10;;
21894;SDS011;11112;51.270;7.224;2023-06-10T00:57:39;7.03;;;5.88;;
21894;SDS011;11112;51.270;7.224;2023-06-10T01:00:13;7.05;;;5.85;;
21894;SDS011;11112;51.270;7.224;2023-06-10T01:02:40;8.00;;;6.20;;
21894;SDS011;11112;51.270;7.224;2023-06-10T01:05:09;7.43;;;5.88;;
21894;SDS011;11112;51.270;7.224;2023-06-10T01:07:38;8.10;;;6.25;;
21894;SDS011;11112;51.270;7.224;2023-06-10T01:10:15;7.75;;;6.45;;
21894;SDS011;11112;51.270;7.224;2023-06-10T01:12:49;8.73;;;6.45;;
21894;SDS011;11112;51.270;7.224;2023-06-10T01:15:29;8.18;;;6.38;;
21894;SDS011;11112;51.270;7.224;2023-06-10T01:17:58;7.85;;;6.43;;
21894;SDS011;11112;51.270;7.224;2023-06-10T01:20:27;9.13;;;6.07;;
21894;SDS011;11112;51.270;7.224;2023-06-10T01:22:59;8.15;;;6.70;;
21894;SDS011;11112;51.270;7.224;2023-06-10T01:25:28;7.78;;;6.47;;
21894;SDS011;11112;51.270;7.224;2023-06-10T01:28:02;7.35;;;6.18;;
21894;SDS011;11112;51.270;7.224;2023-06-10T01:30:35;7.85;;;6.53;;
21894;SDS011;11112;51.270;7.224;2023-06-10T01:33:12;8.77;;;6.45;;
21894;SDS011;11112;51.270;7.224;2023-06-10T01:35:45;11.10;;;6.57;;
21894;SDS011;11112;51.270;7.224;2023-06-10T01:38:18;8.25;;;6.38;;
21894;SDS011;11112;51.270;7.224;2023-06-10T01:40:48;8.60;;;5.95;;
21894;SDS011;11112;51.270;7.224;2023-06-10T01:43:21;9.43;;;6.60;;
21894;SDS011;11112;51.270;7.224;2023-06-10T01:45:49;7.20;;;6.20;;
21894;SDS011;11112;51.270;7.224;2023-06-10T01:48:18;7.57;;;6.32;;
21894;SDS011;11112;51.270;7.224;2023-06-10T01:50:46;9.23;;;6.70;;
21894;SDS011;11112;51.270;7.224;2023-06-10T01:53:13;8.65;;;6.93;;
21894;SDS011;11112;51.270;7.224;2023-06-10T01:55:42;9.18;;;6.72;;
21894;SDS011;11112;51.270;7.224;2023-06-10T01:58:09;9.20;;;6.95;;
21894;SDS011;11112;51.270;7.224;2023-06-10T02:00:38;8.75;;;6.70;;
21894;SDS011;11112;51.270;7.224;2023-06-10T02:03:05;8.65;;;6.80;;
21894;SDS011;11112;51.270;7.224;2023-06-10T02:05:34;9.50;;;6.22;;
21894;SDS011;11112;51.270;7.224;2023-06-10T02:08:02;8.73;;;6.50;;
21894;SDS011;11112;51.270;7.224;2023-06-10T02:10:31;11.13;;;6.88;;
21894;SDS011;11112;51.270;7.224;2023-06-10T02:13:02;9.48;;;6.90;;
21894;SDS011;11112;51.270;7.224;2023-06-10T02:15:29;9.45;;;7.00;;
21894;SDS011;11112;51.270;7.224;2023-06-10T02:17:56;9.23;;;7.05;;
21894;SDS011;11112;51.270;7.224;2023-06-10T02:20:26;8.68;;;6.72;;
21894;SDS011;11112;51.270;7.224;2023-06-10T02:22:54;8.82;;;6.85;;
21894;SDS011;11112;51.270;7.224;2023-06-10T02:25:21;9.02;;;6.45;;
21894;SDS011;11112;51.270;7.224;2023-06-10T02:27:48;11.05;;;6.60;;
21894;SDS011;11112;51.270;7.224;2023-06-10T02:30:18;10.07;;;6.63;;
21894;SDS011;11112;51.270;7.224;2023-06-10T02:32:47;9.18;;;6.63;;
21894;SDS011;11112;51.270;7.224;2023-06-10T02:35:17;8.15;;;6.65;;
21894;SDS011;11112;51.270;7.224;2023-06-10T02:37:44;7.28;;;6.40;;
21894;SDS011;11112;51.270;7.224;2023-06-10T02:40:12;7.15;;;6.40;;
21894;SDS011;11112;51.270;7.224;2023-06-10T02:42:40;9.40;;;7.00;;
21894;SDS011;11112;51.270;7.224;2023-06-10T02:45:07;8.00;;;6.57;;
21894;SDS011;11112;51.270;7.224;2023-06-10T02:47:38;9.05;;;7.00;;
21894;SDS011;11112;51.270;7.224;2023-06-10T02:50:06;8.27;;;6.78;;
21894;SDS011;11112;51.270;7.224;2023-06-10T02:52:34;9.95;;;6.95;;
21894;SDS011;11112;51.270;7.224;2023-06-10T02:55:04;9.23;;;7.28;;
21894;SDS011;11112;51.270;7.224;2023-06-10T02:57:33;10.10;;;7.10;;
21894;SDS011;11112;51.270;7.224;2023-06-10T03:00:04;7.95;;;6.85;;
21894;SDS011;11112;51.270;7.224;2023-06-10T03:02:38;9.15;;;6.65;;
21894;SDS011;11112;51.270;7.224;2023-06-10T03:05:07;8.57;;;6.93;;
21894;SDS011;11112;51.270;7.224;2023-06-10T03:07:36;7.53;;;6.72;;
21894;SDS011;11112;51.270;7.224;2023-06-10T03:10:04;9.57;;;6.72;;
21894;SDS011;11112;51.270;7.224;2023-06-10T03:12:33;8.02;;;7.20;;
21894;SDS011;11112;51.270;7.224;2023-06-10T03:15:02;9.00;;;7.38;;
21894;SDS011;11112;51.270;7.224;2023-06-10T03:17:32;9.10;;;6.97;;
21894;SDS011;11112;51.270;7.224;2023-06-10T03:20:01;8.60;;;7.20;;
21894;SDS011;11112;51.270;7.224;2023-06-10T03:22:31;9.82;;;6.80;;
21894;SDS011;11112;51.270;7.224;2023-06-10T03:24:58;8.38;;;7.32;;
21894;SDS011;11112;51.270;7.224;2023-06-10T03:27:27;8.00;;;6.72;;
21894;SDS011;11112;51.270;7.224;2023-06-10T03:29:55;8.02;;;6.57;;
21894;SDS011;11112;51.270;7.224;2023-06-10T03:32:23;8.23;;;7.20;;
21894;SDS011;11112;51.270;7.224;2023-06-10T03:34:52;9.77;;;7.03;;
21894;SDS011;11112;51.270;7.224;2023-06-10T03:37:23;8.50;;;6.88;;
21894;SDS011;11112;51.270;7.224;2023-06-10T03:39:50;8.20;;;6.43;;
21894;SDS011;11112;51.270;7.224;2023-06-10T03:42:18;8.55;;;7.03;;
21894;SDS011;11112;51.270;7.224;2023-06-10T03:44:45;9.48;;;6.72;;
21894;SDS011;11112;51.270;7.224;2023-06-10T03:47:13;9.68;;;7.10;;
21894;SDS011;11112;51.270;7.224;2023-06-10T03:49:41;8.40;;;7.15;;
21894;SDS011;11112;51.270;7.224;2023-06-10T03:52:08;9.23;;;7.20;;
21894;SDS011;11112;51.270;7.224;2023-06-10T03:54:37;9.23;;;6.97;;
21894;SDS011;11112;51.270;7.224;2023-06-10T03:57:05;7.68;;;6.82;;
21894;SDS011;11112;51.270;7.224;2023-06-10T04:02:06;9.85;;;7.35;;
21894;SDS011;11112;51.270;7.224;2023-06-10T04:04:33;9.23;;;7.10;;
21894;SDS011;11112;51.270;7.224;2023-06-10T04:07:03;9.85;;;7.05;;
21894;SDS011;11112;51.270;7.224;2023-06-10T04:09:31;8.25;;;7.00;;
21894;SDS011;11112;51.270;7.224;2023-06-10T04:12:00;9.38;;;6.82;;
21894;SDS011;11112;51.270;7.224;2023-06-10T04:14:31;9.60;;;7.18;;
21894;SDS011;11112;51.270;7.224;2023-06-10T04:16:59;9.02;;;7.07;;
21894;SDS011;11112;51.270;7.224;2023-06-10T04:19:27;7.60;;;6.68;;
21894;SDS011;11112;51.270;7.224;2023-06-10T04:21:56;10.02;;;7.18;;
21894;SDS011;11112;51.270;7.224;2023-06-10T04:24:23;9.20;;;6.82;;
21894;SDS011;11112;51.270;7.224;2023-06-10T04:26:50;10.63;;;7.20;;
21894;SDS011;11112;51.270;7.224;2023-06-10T04:29:19;8.90;;;6.72;;
21894;SDS011;11112;51.270;7.224;2023-06-10T04:31:47;10.30;;;6.90;;
21894;SDS011;11112;51.270;7.224;2023-06-10T04:34:16;9.80;;;6.88;;
21894;SDS011;11112;51.270;7.224;2023-06-10T04:36:44;10.20;;;7.07;;
21894;SDS011;11112;51.270;7.224;2023-06-10T04:39:11;8.13;;;6.82;;
21894;SDS011;11112;51.270;7.224;2023-06-10T04:41:42;10.98;;;7.20;;
21894;SDS011;11112;51.270;7.224;2023-06-10T04:44:11;7.55;;;6.78;;
21894;SDS011;11112;51.270;7.224;2023-06-10T04:46:41;8.32;;;6.72;;
21894;SDS011;11112;51.270;7.224;2023-06-10T04:49:09;10.07;;;6.78;;
21894;SDS011;11112;51.270;7.224;2023-06-10T04:51:39;7.93;;;6.88;;
21894;SDS011;11112;51.270;7.224;2023-06-10T04:54:07;9.38;;;7.18;;
21894;SDS011;11112;51.270;7.224;2023-06-10T04:56:34;8.02;;;6.43;;
21894;SDS011;11112;51.270;7.224;2023-06-10T04:59:02;7.90;;;6.80;;
21894;SDS011;11112;51.270;7.224;2023-06-10T05:01:29;7.55;;;6.55;;
21894;SDS011;11112;51.270;7.224;2023-06-10T05:03:58;9.73;;;6.82;;
21894;SDS011;11112;51.270;7.224;2023-06-10T05:06:25;9.63;;;6.57;;
21894;SDS011;11112;51.270;7.224;2023-06-10T05:08:53;8.90;;;6.90;;
21894;SDS011;11112;51.270;7.224;2023-06-10T05:11:24;8.75;;;6.88;;
21894;SDS011;11112;51.270;7.224;2023-06-10T05:13:51;9.43;;;7.65;;
21894;SDS011;11112;51.270;7.224;2023-06-10T05:16:18;11.00;;;7.70;;
21894;SDS011;11112;51.270;7.224;2023-06-10T05:18:48;9.93;;;7.85;;
21894;SDS011;11112;51.270;7.224;2023-06-10T05:21:20;8.93;;;8.02;;
21894;SDS011;11112;51.270;7.224;2023-06-10T05:23:47;10.85;;;8.07;;
21894;SDS011;11112;51.270;7.224;2023-06-10T05:26:15;12.25;;;8.02;;
21894;SDS011;11112;51.270;7.224;2023-06-10T05:28:44;11.50;;;7.90;;
21894;SDS011;11112;51.270;7.224;2023-06-10T05:31:12;9.98;;;7.32;;
21894;SDS011;11112;51.270;7.224;2023-06-10T05:33:40;11.63;;;7.97;;
21894;SDS011;11112;51.270;7.224;2023-06-10T05:36:08;9.82;;;7.75;;
21894;SDS011;11112;51.270;7.224;2023-06-10T05:38:37;12.60;;;8.10;;
21894;SDS011;11112;51.270;7.224;2023-06-10T05:41:05;9.38;;;7.32;;
21894;SDS011;11112;51.270;7.224;2023-06-10T05:43:34;10.20;;;7.45;;
21894;SDS011;11112;51.270;7.224;2023-06-10T05:46:02;9.38;;;7.40;;
21894;SDS011;11112;51.270;7.224;2023-06-10T05:48:30;10.57;;;7.45;;
21894;SDS011;11112;51.270;7.224;2023-06-10T05:51:01;11.13;;;7.68;;
21894;SDS011;11112;51.270;7.224;2023-06-10T05:53:28;9.45;;;6.90;;
21894;SDS011;11112;51.270;7.224;2023-06-10T05:55:57;10.90;;;7.15;;
21894;SDS011;11112;51.270;7.224;2023-06-10T05:58:25;11.10;;;7.30;;
21894;SDS011;11112;51.270;7.224;2023-06-10T06:00:52;10.90;;;7.18;;
21894;SDS011;11112;51.270;7.224;2023-06-10T06:03:21;14.63;;;7.20;;
21894;SDS011;11112;51.270;7.224;2023-06-10T06:05:49;11.15;;;7.22;;
21894;SDS011;11112;51.270;7.224;2023-06-10T06:08:16;11.77;;;7.13;;
21894;SDS011;11112;51.270;7.224;2023-06-10T06:10:44;9.13;;;6.50;;
21894;SDS011;11112;51.270;7.224;2023-06-10T06:13:14;9.02;;;6.65;;
21894;SDS011;11112;51.270;7.224;2023-06-10T06:15:44;8.40;;;6.40;;
21894;SDS011;11112;51.270;7.224;2023-06-10T06:18:11;7.82;;;6.43;;
21894;SDS011;11112;51.270;7.224;2023-06-10T06:20:43;9.63;;;6.30;;
21894;SDS011;11112;51.270;7.224;2023-06-10T06:23:10;13.65;;;6.93;;
21894;SDS011;11112;51.270;7.224;2023-06-10T06:25:38;9.93;;;6.70;;
21894;SDS011;11112;51.270;7.224;2023-06-10T06:28:06;7.65;;;6.57;;
21894;SDS011;11112;51.270;7.224;2023-06-10T06:30:35;8.93;;;6.38;;
21894;SDS011;11112;51.270;7.224;2023-06-10T06:33:03;9.27;;;5.88;;
21894;SDS011;11112;51.270;7.224;2023-06-10T06:35:32;8.98;;;6.45;;
21894;SDS011;11112;51.270;7.224;2023-06-10T06:38:00;12.57;;;6.78;;
21894;SDS011;11112;51.270;7.224;2023-06-10T06:40:29;9.48;;;6.40;;
21894;SDS011;11112;51.270;7.224;2023-06-10T06:42:57;8.93;;;6.50;;
21894;SDS011;11112;51.270;7.224;2023-06-10T06:45:26;9.40;;;6.30;;
21894;SDS011;11112;51.270;7.224;2023-06-10T06:47:56;10.80;;;6.25;;
21894;SDS011;11112;51.270;7.224;2023-06-10T06:50:25;8.32;;;6.00;;
21894;SDS011;11112;51.270;7.224;2023-06-10T06:52:53;7.82;;;6.18;;
21894;SDS011;11112;51.270;7.224;2023-06-10T06:55:21;12.57;;;5.90;;
21894;SDS011;11112;51.270;7.224;2023-06-10T06:57:49;10.45;;;5.80;;
21894;SDS011;11112;51.270;7.224;2023-06-10T07:00:17;9.68;;;5.80;;
21894;SDS011;11112;51.270;7.224;2023-06-10T07:02:46;9.02;;;5.65;;
21894;SDS011;11112;51.270;7.224;2023-06-10T07:05:17;8.15;;;5.53;;
21894;SDS011;11112;51.270;7.224;2023-06-10T07:07:45;9.73;;;5.43;;
21894;SDS011;11112;51.270;7.224;2023-06-10T07:10:20;7.60;;;6.40;;
21894;SDS011;11112;51.270;7.224;2023-06-10T07:12:50;8.10;;;6.07;;
21894;SDS011;11112;51.270;7.224;2023-06-10T07:15:18;9.90;;;5.90;;
21894;SDS011;11112;51.270;7.224;2023-06-10T07:17:45;10.38;;;5.60;;
21894;SDS011;11112;51.270;7.224;2023-06-10T07:20:15;8.75;;;5.68;;
21894;SDS011;11112;51.270;7.224;2023-06-10T07:22:44;7.03;;;5.22;;
21894;SDS011;11112;51.270;7.224;2023-06-10T07:25:11;8.30;;;5.72;;
21894;SDS011;11112;51.270;7.224;2023-06-10T07:27:41;7.75;;;5.43;;
21894;SDS011;11112;51.270;7.224;2023-06-10T07:30:09;9.82;;;5.47;;
21894;SDS011;11112;51.270;7.224;2023-06-10T07:32:38;8.48;;;4.90;;
21894;SDS011;11112;51.270;7.224;2023-06-10T07:35:09;7.57;;;5.00;;
21894;SDS011;11112;51.270;7.224;2023-06-10T07:37:39;10.57;;;5.20;;
21894;SDS011;11112;51.270;7.224;2023-06-10T07:40:07;7.95;;;4.55;;
21894;SDS011;11112;51.270;7.224;2023-06-10T07:42:35;6.63;;;4.75;;
21894;SDS011;11112;51.270;7.224;2023-06-10T07:45:03;10.00;;;5.63;;
21894;SDS011;11112;51.270;7.224;2023-06-10T07:47:33;7.57;;;5.13;;
21894;SDS011;11112;51.270;7.224;2023-06-10T07:50:01;9.35;;;5.43;;
21894;SDS011;11112;51.270;7.224;2023-06-10T07:52:30;8.85;;;5.18;;
21894;SDS011;11112;51.270;7.224;2023-06-10T07:55:02;10.85;;;5.70;;
21894;SDS011;11112;51.270;7.224;2023-06-10T07:57:32;8.75;;;5.60;;
21894;SDS011;11112;51.270;7.224;2023-06-10T08:00:01;6.90;;;4.95;;
21894;SDS011;11112;51.270;7.224;2023-06-10T08:02:33;6.10;;;4.80;;
21894;SDS011;11112;51.270;7.224;2023-06-10T08:05:00;7.10;;;5.05;;
21894;SDS011;11112;51.270;7.224;2023-06-10T08:07:27;7.95;;;5.20;;
21894;SDS011;11112;51.270;7.224;2023-06-10T08:09:56;7.60;;;5.20;;
21894;SDS011;11112;51.270;7.224;2023-06-10T08:12:25;9.85;;;5.53;;
21894;SDS011;11112;51.270;7.224;2023-06-10T08:14:52;8.93;;;5.25;;
21894;SDS011;11112;51.270;7.224;2023-06-10T08:17:20;10.07;;;5.65;;
21894;SDS011;11112;51.270;7.224;2023-06-10T08:19:49;10.15;;;5.05;;
21894;SDS011;11112;51.270;7.224;2023-06-10T08:22:16;6.70;;;4.85;;
21894;SDS011;11112;51.270;7.224;2023-06-10T08:24:44;10.25;;;5.50;;
21894;SDS011;11112;51.270;7.224;2023-06-10T08:27:11;8.43;;;5.65;;
21894;SDS011;11112;51.270;7.224;2023-06-10T08:29:41;8.65;;;5.60;;
21894;SDS011;11112;51.270;7.224;2023-06-10T08:32:09;9.43;;;5.75;;
21894;SDS011;11112;51.270;7.224;2023-06-10T08:34:36;9.15;;;5.53;;
21894;SDS011;11112;51.270;7.224;2023-06-10T08:37:06;6.75;;;5.60;;
21894;SDS011;11112;51.270;7.224;2023-06-10T08:39:34;8.60;;;5.75;;
21894;SDS011;11112;51.270;7.224;2023-06-10T08:42:04;7.47;;;5.43;;
21894;SDS011;11112;51.270;7.224;2023-06-10T08:44:42;8.95;;;6.00;;
21894;SDS011;11112;51.270;7.224;2023-06-10T08:47:16;8.38;;;5.70;;
21894;SDS011;11112;51.270;7.224;2023-06-10T08:49:44;8.00;;;5.20;;
21894;SDS011;11112;51.270;7.224;2023-06-10T08:52:19;9.27;;;5.20;;
21894;SDS011;11112;51.270;7.224;2023-06-10T08:54:49;8.48;;;5.80;;
21894;SDS011;11112;51.270;7.224;2023-06-10T08:57:23;10.48;;;5.57;;
21894;SDS011;11112;51.270;7.224;2023-06-10T08:59:53;8.40;;;5.28;;
21894;SDS011;11112;51.270;7.224;2023-06-10T09:02:24;8.82;;;5.40;;
21894;SDS011;11112;51.270;7.224;2023-06-10T09:04:52;21.80;;;6.45;;
21894;SDS011;11112;51.270;7.224;2023-06-10T09:07:23;11.20;;;5.65;;
21894;SDS011;11112;51.270;7.224;2023-06-10T09:09:52;11.88;;;5.25;;
21894;SDS011;11112;51.270;7.224;2023-06-10T09:12:22;7.03;;;5.28;;
21894;SDS011;11112;51.270;7.224;2023-06-10T09:14:50;8.10;;;5.00;;
21894;SDS011;11112;51.270;7.224;2023-06-10T09:17:21;7.55;;;5.45;;
21894;SDS011;11112;51.270;7.224;2023-06-10T09:22:22;8.05;;;5.18;;
21894;SDS011;11112;51.270;7.224;2023-06-10T09:24:51;10.75;;;4.90;;
21894;SDS011;11112;51.270;7.224;2023-06-10T09:27:19;7.28;;;5.10;;
21894;SDS011;11112;51.270;7.224;2023-06-10T09:29:46;9.85;;;5.13;;
21894;SDS011;11112;51.270;7.224;2023-06-10T09:32:19;9.40;;;5.50;;
21894;SDS011;11112;51.270;7.224;2023-06-10T09:34:48;7.75;;;5.18;;
21894;SDS011;11112;51.270;7.224;2023-06-10T09:37:19;8.32;;;5.20;;
21894;SDS011;11112;51.270;7.224;2023-06-10T09:40:00;9.02;;;5.00;;
21894;SDS011;11112;51.270;7.224;2023-06-10T09:42:31;7.40;;;5.07;;
21894;SDS011;11112;51.270;7.224;2023-06-10T09:45:00;7.90;;;4.93;;
21894;SDS011;11112;51.270;7.224;2023-06-10T09:47:30;7.00;;;5.10;;
21894;SDS011;11112;51.270;7.224;2023-06-10T09:49:58;7.75;;;4.95;;
21894;SDS011;11112;51.270;7.224;2023-06-10T09:52:27;8.30;;;5.20;;
21894;SDS011;11112;51.270;7.224;2023-06-10T09:54:58;7.03;;;5.32;;
21894;SDS011;11112;51.270;7.224;2023-06-10T09:57:30;9.68;;;4.90;;
21894;SDS011;11112;51.270;7.224;2023-06-10T09:59:59;7.55;;;5.10;;
21894;SDS011;11112;51.270;7.224;2023-06-10T10:02:32;8.77;;;5.27;;
21894;SDS011;11112;51.270;7.224;2023-06-10T10:05:11;11.80;;;5.43;;
21894;SDS011;11112;51.270;7.224;2023-06-10T10:07:40;9.13;;;4.80;;
21894;SDS011;11112;51.270;7.224;2023-06-10T10:10:11;8.50;;;5.15;;
21894;SDS011;11112;51.270;7.224;2023-06-10T10:12:39;7.28;;;4.95;;
21894;SDS011;11112;51.270;7.224;2023-06-10T10:15:07;10.15;;;5.38;;
21894;SDS011;11112;51.270;7.224;2023-06-10T10:17:43;8.15;;;4.80;;
21894;SDS011;11112;51.270;7.224;2023-06-10T10:20:16;9.60;;;4.88;;
21894;SDS011;11112;51.270;7.224;2023-06-10T10:22:48;7.63;;;5.40;;
21894;SDS011;11112;51.270;7.224;2023-06-10T10:25:21;6.22;;;4.95;;
21894;SDS011;11112;51.270;7.224;2023-06-10T10:27:52;12.43;;;4.97;;
21894;SDS011;11112;51.270;7.224;2023-06-10T10:30:23;8.77;;;5.10;;
21894;SDS011;11112;51.270;7.224;2023-06-10T10:32:55;6.40;;;4.82;;
21894;SDS011;11112;51.270;7.224;2023-06-10T10:35:31;6.82;;;4.82;;
21894;SDS011;11112;51.270;7.224;2023-06-10T10:38:00;7.30;;;5.20;;
21894;SDS011;11112;51.270;7.224;2023-06-10T10:40:29;7.78;;;5.30;;
21894;SDS011;11112;51.270;7.224;2023-06-10T10:42:57;6.90;;;4.70;;
21894;SDS011;11112;51.270;7.224;2023-06-10T10:45:27;8.68;;;5.07;;
21894;SDS011;11112;51.270;7.224;2023-06-10T10:47:57;9.43;;;5.63;;
21894;SDS011;11112;51.270;7.224;2023-06-10T10:50:31;10.23;;;5.30;;
21894;SDS011;11112;51.270;7.224;2023-06-10T10:53:00;10.15;;;5.22;;
21894;SDS011;11112;51.270;7.224;2023-06-10T10:55:29;9.18;;;5.20;;
21894;SDS011;11112;51.270;7.224;2023-06-10T10:57:57;9.25;;;5.28;;
21894;SDS011;11112;51.270;7.224;2023-06-10T11:00:29;8.60;;;5.20;;
21894;SDS011;11112;51.270;7.224;2023-06-10T11:03:04;13.27;;;5.25;;
21894;SDS011;11112;51.270;7.224;2023-06-10T11:05:37;6.22;;;5.00;;
21894;SDS011;11112;51.270;7.224;2023-06-10T11:08:07;7.85;;;5.25;;
21894;SDS011;11112;51.270;7.224;2023-06-10T11:10:36;8.45;;;5.20;;
21894;SDS011;11112;51.270;7.224;2023-06-10T11:13:05;9.00;;;5.10;;
21894;SDS011;11112;51.270;7.224;2023-06-10T11:15:38;7.18;;;5.07;;
21894;SDS011;11112;51.270;7.224;2023-06-10T11:18:13;7.97;;;5.57;;
21894;SDS011;11112;51.270;7.224;2023-06-10T11:20:56;8.68;;;5.03;;
21894;SDS011;11112;51.270;7.224;2023-06-10T11:23:33;7.55;;;5.28;;
21894;SDS011;11112;51.270;7.224;2023-06-10T11:26:09;9.60;;;4.90;;
21894;SDS011;11112;51.270;7.224;2023-06-10T11:31:45;8.45;;;5.20;;
21894;SDS011;11112;51.270;7.224;2023-06-10T11:34:22;7.70;;;5.32;;
21894;SDS011;11112;51.270;7.224;2023-06-10T11:36:52;9.73;;;5.93;;
21894;SDS011;11112;51.270;7.224;2023-06-10T11:39:20;8.25;;;5.82;;
21894;SDS011;11112;51.270;7.224;2023-06-10T11:41:51;9.57;;;5.70;;
21894;SDS011;11112;51.270;7.224;2023-06-10T11:44:19;9.45;;;5.45;;
21894;SDS011;11112;51.270;7.224;2023-06-10T11:46:47;10.30;;;5.47;;
21894;SDS011;11112;51.270;7.224;2023-06-10T11:49:17;8.32;;;5.38;;
21894;SDS011;11112;51.270;7.224;2023-06-10T11:51:50;9.95;;;5.05;;
21894;SDS011;11112;51.270;7.224;2023-06-10T11:54:19;8.10;;;5.30;;
21894;SDS011;11112;51.270;7.224;2023-06-10T11:56:48;10.50;;;5.10;;
21894;SDS011;11112;51.270;7.224;2023-06-10T11:59:17;12.40;;;5.22;;
21894;SDS011;11112;51.270;7.224;2023-06-10T12:01:45;10.25;;;4.72;;
21894;SDS011;11112;51.270;7.224;2023-06-10T12:04:13;7.63;;;5.15;;
21894;SDS011;11112;51.270;7.224;2023-06-10T12:06:45;8.43;;;4.90;;
21894;SDS011;11112;51.270;7.224;2023-06-10T12:09:14;7.82;;;4.72;;
21894;SDS011;11112;51.270;7.224;2023-06-10T12:11:44;7.20;;;5.05;;
21894;SDS011;11112;51.270;7.224;2023-06-10T12:14:15;6.70;;;5.13;;
21894;SDS011;11112;51.270;7.224;2023-06-10T12:17:23;8.98;;;5.05;;
21894;SDS011;11112;51.270;7.224;2023-06-10T12:20:03;6.55;;;4.72;;
21894;SDS011;11112;51.270;7.224;2023-06-10T12:22:37;7.82;;;5.15;;
21894;SDS011;11112;51.270;7.224;2023-06-10T12:25:06;6.85;;;4.82;;
21894;SDS011;11112;51.270;7.224;2023-06-10T12:27:35;7.97;;;4.90;;
21894;SDS011;11112;51.270;7.224;2023-06-10T12:30:05;7.93;;;4.78;;
21894;SDS011;11112;51.270;7.224;2023-06-10T12:32:37;8.30;;;5.13;;
21894;SDS011;11112;51.270;7.224;2023-06-10T12:35:08;8.43;;;4.97;;
21894;SDS011;11112;51.270;7.224;2023-06-10T12:37:41;8.40;;;5.00;;
21894;SDS011;11112;51.270;7.224;2023-06-10T12:40:08;9.52;;;4.95;;
21894;SDS011;11112;51.270;7.224;2023-06-10T12:42:37;9.75;;;5.05;;
21894;SDS011;11112;51.270;7.224;2023-06-10T12:45:07;9.95;;;4.97;;
21894;SDS011;11112;51.270;7.224;2023-06-10T12:47:38;5.80;;;4.53;;
21894;SDS011;11112;51.270;7.224;2023-06-10T12:50:07;7.18;;;4.80;;
21894;SDS011;11112;51.270;7.224;2023-06-10T12:52:36;8.23;;;5.13;;
21894;SDS011;11112;51.270;7.224;2023-06-10T12:55:08;8.00;;;4.93;;
21894;SDS011;11112;51.270;7.224;2023-06-10T12:57:36;7.82;;;5.10;;
21894;SDS011;11112;51.270;7.224;2023-06-10T13:00:04;8.95;;;4.72;;
21894;SDS011;11112;51.270;7.224;2023-06-10T13:02:35;10.05;;;4.90;;
21894;SDS011;11112;51.270;7.224;2023-06-10T13:05:03;6.57;;;4.85;;
21894;SDS011;11112;51.270;7.224;2023-06-10T13:07:30;6.90;;;5.05;;
21894;SDS011;11112;51.270;7.224;2023-06-10T13:09:59;8.75;;;4.85;;
21894;SDS011;11112;51.270;7.224;2023-06-10T13:12:28;10.05;;;5.13;;
21894;SDS011;11112;51.270;7.224;2023-06-10T13:14:55;6.82;;;4.78;;
21894;SDS011;11112;51.270;7.224;2023-06-10T13:17:23;7.25;;;4.93;;
21894;SDS011;11112;51.270;7.224;2023-06-10T13:19:51;8.35;;;4.72;;
21894;SDS011;11112;51.270;7.224;2023-06-10T13:22:18;8.93;;;4.90;;
21894;SDS011;11112;51.270;7.224;2023-06-10T13:24:46;8.18;;;5.13;;
21894;SDS011;11112;51.270;7.224;2023-06-10T13:27:15;6.78;;;4.90;;
21894;SDS011;11112;51.270;7.224;2023-06-10T13:29:43;8.30;;;5.30;;
21894;SDS011;11112;51.270;7.224;2023-06-10T13:32:11;7.38;;;4.82;;
21894;SDS011;11112;51.270;7.224;2023-06-10T13:34:39;5.80;;;4.80;;
21894;SDS011;11112;51.270;7.224;2023-06-10T13:37:06;7.10;;;4.90;;
21894;SDS011;11112;51.270;7.224;2023-06-10T13:39:33;9.98;;;4.60;;
21894;SDS011;11112;51.270;7.224;2023-06-10T13:42:01;6.07;;;4.60;;
21894;SDS011;11112;51.270;7.224;2023-06-10T13:44:28;6.05;;;4.45;;
21894;SDS011;11112;51.270;7.224;2023-06-10T13:47:00;10.18;;;5.00;;
21894;SDS011;11112;51.270;7.224;2023-06-10T13:49:28;7.53;;;5.03;;
21894;SDS011;11112;51.270;7.224;2023-06-10T13:51:55;7.85;;;4.68;;
21894;SDS011;11112;51.270;7.224;2023-06-10T13:54:23;7.80;;;4.50;;
21894;SDS011;11112;51.270;7.224;2023-06-10T13:56:50;8.07;;;4.70;;
21894;SDS011;11112;51.270;7.224;2023-06-10T13:59:18;7.72;;;4.60;;
21894;SDS011;11112;51.270;7.224;2023-06-10T14:01:46;8.68;;;4.68;;
21894;SDS011;11112;51.270;7.224;2023-06-10T14:04:14;7.25;;;4.50;;
21894;SDS011;11112;51.270;7.224;2023-06-10T14:06:43;7.03;;;4.55;;
21894;SDS011;11112;51.270;7.224;2023-06-10T14:09:12;10.50;;;4.85;;
21894;SDS011;11112;51.270;7.224;2023-06-10T14:11:40;7.43;;;4.88;;
21894;SDS011;11112;51.270;7.224;2023-06-10T14:14:07;8.50;;;4.93;;
21894;SDS011;11112;51.270;7.224;2023-06-10T14:16:35;5.75;;;4.43;;
21894;SDS011;11112;51.270;7.224;2023-06-10T14:19:02;6.47;;;4.93;;
21894;SDS011;11112;51.270;7.224;2023-06-10T14:21:31;8.18;;;4.97;;
21894;SDS011;11112;51.270;7.224;2023-06-10T14:23:58;7.50;;;5.00;;
21894;SDS011;11112;51.270;7.224;2023-06-10T14:26:26;8.43;;;4.68;;
21894;SDS011;11112;51.270;7.224;2023-06-10T14:28:54;6.55;;;4.75;;
21894;SDS011;11112;51.270;7.224;2023-06-10T14:31:22;8.43;;;4.70;;
21894;SDS011;11112;51.270;7.224;2023-06-10T14:33:49;7.13;;;4.68;;
21894;SDS011;11112;51.270;7.224;2023-06-10T14:36:17;8.13;;;5.00;;
21894;SDS011;11112;51.270;7.224;2023-06-10T14:38:46;7.75;;;4.70;;
21894;SDS011;11112;51.270;7.224;2023-06-10T14:41:13;8.10;;;4.90;;
21894;SDS011;11112;51.270;7.224;2023-06-10T14:43:42;10.57;;;4.95;;
21894;SDS011;11112;51.270;7.224;2023-06-10T14:46:09;6.63;;;4.95;;
21894;SDS011;11112;51.270;7.224;2023-06-10T14:48:36;6.75;;;4.88;;
21894;SDS011;11112;51.270;7.224;2023-06-10T14:51:03;7.53;;;4.78;;
21894;SDS011;11112;51.270;7.224;2023-06-10T14:53:31;10.73;;;4.80;;
21894;SDS011;11112;51.270;7.224;2023-06-10T14:56:01;7.72;;;4.78;;
21894;SDS011;11112;51.270;7.224;2023-06-10T14:58:28;10.30;;;4.75;;
21894;SDS011;11112;51.270;7.224;2023-06-10T15:00:55;9.15;;;4.70;;
21894;SDS011;11112;51.270;7.224;2023-06-10T15:03:23;7.07;;;4.80;;
21894;SDS011;11112;51.270;7.224;2023-06-10T15:05:50;9.32;;;5.05;;